METAR Data
IDs: Format: Raw Decoded Include TAF

Data at: 2202 UTC 01 Dec 2021

EHKD 012155Z AUTO 33010G20KT 290V010 9999 FEW026 SCT048 BKN100 06/01 Q0996 BLU